« Back
NWS Peachtree City, Ga » Text Product » CSG Terminal Aerodrome Forecast


Printer-friendly Version
Current Version              Previous Versions:   1  2  3  4  5  6  7  8  9  

Terminal Aerodrome Forecast

172
FTUS42 KFFC 191120
TAFCSG
TAF
KCSG 191120Z 1912/2012 16006KT 6SM -SHRA BR OVC025
      TEMPO 1912/1915 4SM -RA BR OVC008
     FM191500 19008G16KT 4SM -SHRA BKN015 OVC025
      TEMPO 1915/1917 VRB20G30KT 2SM TSRA BKN010CB
     FM192100 21008G16KT P6SM VCSH BKN015
     FM200000 21005KT P6SM BKN030
     FM200700 21005KT 4SM BR OVC004=



USA.gov is the U.S. government's official web portal to all federal, state and local government web resources and services.